Time;durP1;ratioP1;P1;durP2;ratioP2;P2;SDS_P1;SDS_P2;PMS_P1;PMS_P2;Temp;Humidity;BMP_temperature;BMP_pressure;BME280_temperature;BME280_humidity;BME280_pressure;Samples;Min_cycle;Max_cycle;Signal;HPM_P1;HPM_P2
2021/12/15 00:01:45;;;;;;;76.55;38.70;;;9.50;99.90;;;;;;4999852;28;20038;-87
2021/12/15 00:04:11;;;;;;;77.82;38.15;;;9.60;99.90;;;;;;5006882;28;20114;-87
2021/12/15 00:06:37;;;;;;;76.13;37.65;;;9.60;99.90;;;;;;5006321;28;20041;-87
2021/12/15 00:09:07;;;;;;;79.43;38.50;;;9.60;99.90;;;;;;5007377;28;20018;-87
2021/12/15 00:11:36;;;;;;;83.28;40.28;;;9.60;99.90;;;;;;5002634;28;20026;-87
2021/12/15 00:14:06;;;;;;;82.70;40.30;;;9.60;99.90;;;;;;5003024;28;20025;-87
2021/12/15 00:16:32;;;;;;;84.30;38.28;;;9.60;99.90;;;;;;5004973;28;20035;-87
2021/12/15 00:18:58;;;;;;;84.65;40.05;;;9.60;99.90;;;;;;5006952;28;20050;-87
2021/12/15 00:21:24;;;;;;;82.80;39.42;;;9.60;99.90;;;;;;5012210;28;20039;-88
2021/12/15 00:23:49;;;;;;;87.45;40.83;;;9.50;99.90;;;;;;5014295;28;20389;-87
2021/12/15 00:26:16;;;;;;;86.50;41.03;;;9.60;99.90;;;;;;5010476;28;20057;-87
2021/12/15 00:28:43;;;;;;;84.13;41.70;;;9.60;99.90;;;;;;5010898;28;20030;-87
2021/12/15 00:31:09;;;;;;;89.10;42.35;;;9.60;99.90;;;;;;5012138;28;20036;-87
2021/12/15 00:33:36;;;;;;;90.43;40.28;;;9.50;99.90;;;;;;5010003;28;20149;-87
2021/12/15 00:36:04;;;;;;;83.40;42.00;;;9.50;99.90;;;;;;5010632;28;20061;-87
2021/12/15 00:38:29;;;;;;;84.03;39.80;;;9.60;99.90;;;;;;5010633;28;20452;-87
2021/12/15 00:40:55;;;;;;;91.90;42.25;;;9.50;99.90;;;;;;5016010;28;20046;-87
2021/12/15 00:43:21;;;;;;;95.75;42.70;;;9.50;99.90;;;;;;5013298;28;20109;-87
2021/12/15 00:45:47;;;;;;;82.80;40.20;;;9.50;99.90;;;;;;5016926;28;21497;-87
2021/12/15 00:48:14;;;;;;;93.43;44.33;;;9.60;99.90;;;;;;5016820;28;20506;-87
2021/12/15 00:50:40;;;;;;;87.78;41.60;;;9.60;99.90;;;;;;5013605;28;20042;-88
2021/12/15 00:53:07;;;;;;;94.43;44.17;;;9.60;99.90;;;;;;5007820;28;20026;-87
2021/12/15 00:55:33;;;;;;;88.13;42.38;;;9.60;99.90;;;;;;5011291;28;20068;-88
2021/12/15 00:58:00;;;;;;;89.60;41.30;;;9.50;99.90;;;;;;5012270;28;20092;-87
2021/12/15 01:00:52;;;;;;;87.53;42.63;;;9.60;99.90;;;;;;5010142;28;20647;-87
2021/12/15 01:03:18;;;;;;;92.93;43.60;;;9.60;99.90;;;;;;5009507;28;20445;-87
2021/12/15 01:05:48;;;;;;;98.28;43.92;;;9.60;99.90;;;;;;5007680;28;20091;-87
2021/12/15 01:08:19;;;;;;;95.53;43.28;;;9.60;99.90;;;;;;5009609;28;20029;-87
2021/12/15 01:11:26;;;;;;;94.95;43.78;;;9.60;99.90;;;;;;5015293;28;20026;-87
2021/12/15 01:22:01;;;;;;;97.25;43.40;;;9.60;99.90;;;;;;4998139;28;20041;-87
2021/12/15 01:24:26;;;;;;;95.03;42.53;;;9.60;99.90;;;;;;5007416;28;20031;-87
2021/12/15 01:26:52;;;;;;;90.57;41.50;;;9.60;99.90;;;;;;5004760;28;20442;-87
2021/12/15 01:29:18;;;;;;;92.10;42.20;;;9.60;99.90;;;;;;5008647;28;20022;-87
2021/12/15 01:31:44;;;;;;;91.13;42.05;;;9.60;99.90;;;;;;5007254;28;20037;-87
2021/12/15 01:34:09;;;;;;;89.68;40.50;;;9.60;99.90;;;;;;5012219;28;20412;-87
2021/12/15 01:36:35;;;;;;;97.60;42.45;;;9.60;99.90;;;;;;5013705;28;20371;-87
2021/12/15 01:39:02;;;;;;;90.90;40.83;;;9.60;99.90;;;;;;5012731;28;20457;-87
2021/12/15 01:41:28;;;;;;;86.60;40.17;;;9.60;99.90;;;;;;5014344;28;20045;-86
2021/12/15 01:46:59;;;;;;;91.40;40.30;;;9.60;99.90;;;;;;5006144;28;20077;-88
2021/12/15 01:49:33;;;;;;;85.97;38.95;;;9.60;99.90;;;;;;5008026;28;20026;-87
2021/12/15 01:52:19;;;;;;;87.85;38.75;;;9.60;99.90;;;;;;5012301;28;20030;-87
2021/12/15 01:54:49;;;;;;;88.35;39.95;;;9.60;99.90;;;;;;4999294;28;20026;-88
2021/12/15 01:57:16;;;;;;;87.72;38.70;;;9.60;99.90;;;;;;5008788;28;20057;-87
2021/12/15 01:59:43;;;;;;;91.55;40.95;;;9.60;99.90;;;;;;5014077;28;20089;-87
2021/12/15 02:02:09;;;;;;;84.47;39.42;;;9.60;99.90;;;;;;5003442;28;20125;-87
2021/12/15 02:04:35;;;;;;;82.78;39.25;;;9.60;99.90;;;;;;5014604;28;20208;-87
2021/12/15 02:07:05;;;;;;;84.00;38.80;;;9.60;99.90;;;;;;5013183;28;20405;-87
2021/12/15 02:12:18;;;;;;;78.60;37.03;;;9.60;99.90;;;;;;5003842;28;20034;-87
2021/12/15 02:14:44;;;;;;;77.90;36.72;;;9.60;99.90;;;;;;5003965;28;20034;-87
2021/12/15 02:17:09;;;;;;;83.32;38.25;;;9.60;99.90;;;;;;5010750;28;20022;-87
2021/12/15 02:19:35;;;;;;;83.75;39.00;;;9.50;99.90;;;;;;5010625;28;20049;-87
2021/12/15 02:22:01;;;;;;;84.03;38.55;;;9.50;99.90;;;;;;5007693;28;20080;-87
2021/12/15 02:24:27;;;;;;;81.55;38.92;;;9.50;99.90;;;;;;5014085;28;20057;-87
2021/12/15 02:26:58;;;;;;;91.97;39.67;;;9.50;99.90;;;;;;5009161;28;20026;-87
2021/12/15 02:29:25;;;;;;;79.40;36.13;;;9.50;99.90;;;;;;5009579;28;20109;-87
2021/12/15 02:32:36;;;;;;;81.43;37.60;;;9.60;99.90;;;;;;5006467;28;20069;-86
2021/12/15 02:35:07;;;;;;;82.03;37.45;;;9.50;99.90;;;;;;5011383;28;20092;-87
2021/12/15 02:37:30;;;;;;;85.22;37.03;;;9.50;99.90;;;;;;5011467;28;20490;-87
2021/12/15 02:40:00;;;;;;;91.03;39.75;;;9.60;99.90;;;;;;5011816;28;20033;-87
2021/12/15 02:42:33;;;;;;;81.85;36.50;;;9.60;99.90;;;;;;5015726;28;20026;-87
2021/12/15 02:44:59;;;;;;;73.93;34.53;;;9.60;99.90;;;;;;5013078;28;20087;-87
2021/12/15 02:47:29;;;;;;;83.47;36.95;;;9.60;99.90;;;;;;5012078;28;20030;-87
2021/12/15 02:49:57;;;;;;;83.18;37.03;;;9.50;99.90;;;;;;5011615;28;20068;-87
2021/12/15 02:52:24;;;;;;;80.32;37.28;;;9.50;99.90;;;;;;5007947;28;20026;-87
2021/12/15 02:54:49;;;;;;;82.20;37.28;;;9.60;99.90;;;;;;5008714;28;20030;-87
2021/12/15 02:57:16;;;;;;;87.20;38.22;;;9.50;99.90;;;;;;5007122;28;20037;-87
2021/12/15 02:59:54;;;;;;;79.10;35.70;;;9.50;99.90;;;;;;5011656;28;20053;-87
2021/12/15 03:03:01;;;;;;;86.45;38.50;;;9.60;99.90;;;;;;5006159;28;20038;-87
2021/12/15 03:05:18;;;;;;;81.15;35.50;;;9.50;99.90;;;;;;5006893;28;20057;-86
2021/12/15 03:07:55;;;;;;;83.72;36.97;;;9.50;99.90;;;;;;5012129;28;20030;-87
2021/12/15 03:16:08;;;;;;;78.85;36.15;;;9.50;99.90;;;;;;4991718;28;20477;-87
2021/12/15 03:18:35;;;;;;;88.80;35.78;;;9.50;99.90;;;;;;5009759;28;20034;-87
2021/12/15 03:21:06;;;;;;;81.65;36.40;;;9.50;99.90;;;;;;5010418;28;20091;-87
2021/12/15 03:23:40;;;;;;;77.97;34.95;;;9.50;99.90;;;;;;5011002;28;20367;-87
2021/12/15 03:26:08;;;;;;;84.15;36.67;;;9.50;99.90;;;;;;5004103;28;20029;-87
2021/12/15 03:34:14;;;;;;;81.40;35.97;;;9.50;99.90;;;;;;5000004;28;20105;-87
2021/12/15 03:37:07;;;;;;;83.18;37.00;;;9.50;99.90;;;;;;5010963;28;20475;-87
2021/12/15 03:39:40;;;;;;;82.88;35.85;;;9.50;99.90;;;;;;5009078;28;20085;-87
2021/12/15 03:42:08;;;;;;;85.47;37.00;;;9.50;99.90;;;;;;5008131;28;20533;-87
2021/12/15 03:44:36;;;;;;;77.50;36.92;;;9.50;99.90;;;;;;5012489;28;20056;-87
2021/12/15 03:47:06;;;;;;;77.55;34.17;;;9.50;99.90;;;;;;4996148;28;20026;-87
2021/12/15 03:49:32;;;;;;;84.25;37.83;;;9.50;99.90;;;;;;5002689;28;20030;-87
2021/12/15 03:51:58;;;;;;;87.57;37.38;;;9.50;99.90;;;;;;5004510;28;20030;-87
2021/12/15 03:54:24;;;;;;;90.18;38.00;;;9.50;99.90;;;;;;5010833;28;20029;-87
2021/12/15 03:56:50;;;;;;;84.32;35.15;;;9.50;99.90;;;;;;5007644;28;20034;-87
2021/12/15 03:59:18;;;;;;;86.65;36.47;;;9.50;99.90;;;;;;5002240;28;20019;-87
2021/12/15 04:01:44;;;;;;;88.57;37.58;;;9.50;99.90;;;;;;5008642;28;20442;-86
2021/12/15 04:04:09;;;;;;;83.30;36.13;;;9.50;99.90;;;;;;5011323;28;20080;-87
2021/12/15 04:06:37;;;;;;;87.47;37.28;;;9.50;99.90;;;;;;5007343;28;20403;-87
2021/12/15 04:09:07;;;;;;;87.00;36.30;;;9.60;99.90;;;;;;5004547;28;20029;-87
2021/12/15 04:11:34;;;;;;;85.38;38.10;;;9.50;99.90;;;;;;5013327;28;20029;-87
2021/12/15 04:14:03;;;;;;;82.20;35.53;;;9.50;99.90;;;;;;5011015;28;20504;-87
2021/12/15 04:18:55;;;;;;;78.07;35.83;;;9.50;99.90;;;;;;5008859;28;20026;-86
2021/12/15 04:21:21;;;;;;;74.60;34.08;;;9.50;99.90;;;;;;5011424;28;20409;-86
2021/12/15 04:23:52;;;;;;;76.68;34.60;;;9.60;99.90;;;;;;5036377;28;20460;-87
2021/12/15 04:26:18;;;;;;;79.20;35.08;;;9.60;99.90;;;;;;5017811;28;20037;-87
2021/12/15 04:28:44;;;;;;;84.43;34.42;;;9.50;99.90;;;;;;5010832;28;20036;-87
2021/12/15 04:31:12;;;;;;;84.45;37.00;;;9.50;99.90;;;;;;5010369;28;20030;-87
2021/12/15 04:33:44;;;;;;;83.80;35.83;;;9.50;99.90;;;;;;5007029;28;20100;-87
2021/12/15 04:36:12;;;;;;;75.97;34.42;;;9.50;99.90;;;;;;5008016;28;20026;-87
2021/12/15 04:38:40;;;;;;;79.50;36.13;;;9.60;99.90;;;;;;5011269;28;20490;-87
2021/12/15 04:41:09;;;;;;;78.35;34.50;;;9.50;99.90;;;;;;5010674;28;20033;-87
2021/12/15 04:43:39;;;;;;;77.38;35.47;;;9.50;99.90;;;;;;5011893;28;20030;-86
2021/12/15 04:46:07;;;;;;;79.88;36.10;;;9.50;99.90;;;;;;4999715;28;20399;-87
2021/12/15 04:48:33;;;;;;;79.70;36.05;;;9.60;99.90;;;;;;5010679;28;20026;-87
2021/12/15 04:50:59;;;;;;;76.75;34.55;;;9.50;99.90;;;;;;5019483;28;20056;-87
2021/12/15 04:53:25;;;;;;;80.97;35.83;;;9.60;99.90;;;;;;5023912;28;20467;-87
2021/12/15 04:55:50;;;;;;;84.82;35.72;;;9.50;99.90;;;;;;5005982;28;20026;-87
2021/12/15 04:58:16;;;;;;;85.82;36.50;;;9.60;99.90;;;;;;5002895;28;20068;-87
2021/12/15 05:00:50;;;;;;;81.78;35.83;;;9.50;99.90;;;;;;5001382;28;20438;-87
2021/12/15 05:03:16;;;;;;;81.13;36.03;;;9.60;99.90;;;;;;5025581;28;20053;-86
2021/12/15 05:05:41;;;;;;;76.70;34.58;;;9.60;99.90;;;;;;5009839;28;20027;-87
2021/12/15 05:08:08;;;;;;;83.20;36.17;;;9.60;99.90;;;;;;5003137;28;20026;-87
2021/12/15 05:10:35;;;;;;;75.47;33.97;;;9.50;99.90;;;;;;5013322;28;20125;-87
2021/12/15 05:13:01;;;;;;;80.25;35.47;;;9.60;99.90;;;;;;5023480;28;20459;-87
2021/12/15 05:15:27;;;;;;;74.97;34.60;;;9.60;99.90;;;;;;5011070;28;20120;-87
2021/12/15 05:17:54;;;;;;;79.75;34.92;;;9.60;99.90;;;;;;5013715;28;20089;-87
2021/12/15 05:20:20;;;;;;;79.88;34.97;;;9.60;99.90;;;;;;5012559;28;20478;-87
2021/12/15 05:22:45;;;;;;;84.45;36.22;;;9.60;99.90;;;;;;5013919;28;20029;-87
2021/12/15 05:25:11;;;;;;;80.13;36.05;;;9.60;99.90;;;;;;5009648;28;20062;-87
2021/12/15 05:27:39;;;;;;;76.32;34.08;;;9.60;99.90;;;;;;5014032;28;20040;-87
2021/12/15 05:30:07;;;;;;;84.50;37.40;;;9.60;99.90;;;;;;5012218;28;20036;-87
2021/12/15 05:32:33;;;;;;;77.82;34.90;;;9.60;99.90;;;;;;5013393;28;20034;-87
2021/12/15 05:34:59;;;;;;;78.13;35.15;;;9.60;99.90;;;;;;5012087;28;20449;-87
2021/12/15 05:37:26;;;;;;;78.22;35.03;;;9.60;99.90;;;;;;5012679;28;20114;-88
2021/12/15 05:39:53;;;;;;;82.93;35.45;;;9.60;99.90;;;;;;5015928;28;20033;-87
2021/12/15 05:42:19;;;;;;;78.82;35.17;;;9.60;99.90;;;;;;5012788;28;20026;-87
2021/12/15 05:44:49;;;;;;;75.47;35.15;;;9.60;99.90;;;;;;5014208;28;20034;-87
2021/12/15 05:47:15;;;;;;;80.82;35.80;;;9.60;99.90;;;;;;5003340;28;20054;-87
2021/12/15 05:49:41;;;;;;;82.25;36.15;;;9.60;99.90;;;;;;5012794;28;20089;-87
2021/12/15 05:52:07;;;;;;;81.82;35.10;;;9.60;99.90;;;;;;5012212;28;20026;-87
2021/12/15 05:54:34;;;;;;;76.43;35.55;;;9.60;99.90;;;;;;5011176;28;20553;-88
2021/12/15 05:57:00;;;;;;;86.38;37.10;;;9.60;99.90;;;;;;5009909;28;20034;-87
2021/12/15 05:59:26;;;;;;;80.78;35.42;;;9.60;99.90;;;;;;5012087;28;20104;-86
2021/12/15 06:01:51;;;;;;;75.00;34.67;;;9.60;99.90;;;;;;5012248;28;20086;-87
2021/12/15 06:04:17;;;;;;;81.22;36.20;;;9.60;99.90;;;;;;5011080;28;20018;-87
2021/12/15 06:06:43;;;;;;;76.38;33.30;;;9.60;99.90;;;;;;5009344;28;20056;-87
2021/12/15 06:09:10;;;;;;;76.75;34.60;;;9.60;99.90;;;;;;5010897;28;20085;-86
2021/12/15 06:11:39;;;;;;;73.00;34.08;;;9.60;99.90;;;;;;5013094;28;20632;-86
2021/12/15 06:14:05;;;;;;;89.72;38.03;;;9.60;99.90;;;;;;5002450;28;20022;-87
2021/12/15 06:16:31;;;;;;;85.97;37.25;;;9.60;99.90;;;;;;5008389;28;20033;-87
2021/12/15 06:18:57;;;;;;;78.93;36.63;;;9.60;99.90;;;;;;5015561;28;20121;-86
2021/12/15 06:21:23;;;;;;;82.32;35.72;;;9.70;99.90;;;;;;5013683;28;20041;-86
2021/12/15 06:23:49;;;;;;;82.50;36.00;;;9.60;99.90;;;;;;5016751;28;20014;-87
2021/12/15 06:26:16;;;;;;;79.18;34.78;;;9.70;99.90;;;;;;5024913;28;20072;-89
2021/12/15 06:28:43;;;;;;;86.35;38.13;;;9.70;99.90;;;;;;5011524;28;20076;-87
2021/12/15 06:31:11;;;;;;;85.82;38.08;;;9.70;99.90;;;;;;5012188;28;20112;-87
2021/12/15 06:33:39;;;;;;;80.47;35.85;;;9.70;99.90;;;;;;5013412;28;20029;-88
2021/12/15 06:36:06;;;;;;;88.35;36.67;;;9.70;99.90;;;;;;5011526;28;20029;-87
2021/12/15 06:38:38;;;;;;;84.07;34.63;;;9.70;99.90;;;;;;5012527;28;20023;-87
2021/12/15 06:41:06;;;;;;;79.95;35.33;;;9.70;99.90;;;;;;5008722;28;20072;-87
2021/12/15 06:43:32;;;;;;;88.30;37.42;;;9.70;99.90;;;;;;5014314;28;20500;-88
2021/12/15 06:46:22;;;;;;;84.38;37.30;;;9.70;99.90;;;;;;5007670;28;20491;-87
2021/12/15 07:00:06;;;;;;;93.45;37.25;;;9.80;99.90;;;;;;4988655;28;20072;-86
2021/12/15 07:02:32;;;;;;;100.20;39.05;;;9.70;99.90;;;;;;5001405;28;20066;-87
2021/12/15 07:04:57;;;;;;;97.90;39.25;;;9.70;99.90;;;;;;5004032;28;20057;-86
2021/12/15 07:07:23;;;;;;;95.95;38.67;;;9.80;99.90;;;;;;5002119;28;20050;-87
2021/12/15 07:09:49;;;;;;;99.10;39.92;;;9.70;99.90;;;;;;5011809;28;20075;-86
2021/12/15 07:12:15;;;;;;;96.43;38.42;;;9.70;99.90;;;;;;5010759;28;20094;-86
2021/12/15 07:14:40;;;;;;;92.53;38.03;;;9.70;99.90;;;;;;5009391;28;20022;-85
2021/12/15 07:17:10;;;;;;;96.05;38.88;;;9.80;99.90;;;;;;5009646;28;20386;-85
2021/12/15 07:20:03;;;;;;;96.40;37.97;;;9.80;99.90;;;;;;5010069;28;20073;-87
2021/12/15 07:22:34;;;;;;;105.18;39.25;;;9.80;99.90;;;;;;5002255;28;20156;-85
2021/12/15 07:25:01;;;;;;;99.80;38.78;;;9.80;99.90;;;;;;5011881;28;20034;-86
2021/12/15 07:27:26;;;;;;;102.00;39.88;;;9.80;99.90;;;;;;5012651;28;20026;-86
2021/12/15 07:29:52;;;;;;;105.90;38.40;;;9.80;99.90;;;;;;5010854;28;20037;-87
2021/12/15 07:32:18;;;;;;;105.63;39.03;;;9.80;99.90;;;;;;5011178;28;20029;-86
2021/12/15 07:34:43;;;;;;;110.78;39.33;;;9.80;99.90;;;;;;5010692;28;20168;-86
2021/12/15 07:37:10;;;;;;;103.47;39.92;;;9.70;99.90;;;;;;5010806;28;20493;-86
2021/12/15 07:39:37;;;;;;;111.53;41.10;;;9.80;99.90;;;;;;5012198;28;20033;-86
2021/12/15 07:42:07;;;;;;;108.38;40.47;;;9.80;99.90;;;;;;5002817;28;20038;-86
2021/12/15 07:44:34;;;;;;;106.95;39.28;;;9.80;99.90;;;;;;5024263;28;20121;-86
2021/12/15 07:46:59;;;;;;;118.22;43.00;;;9.80;99.90;;;;;;5011154;28;20041;-86
2021/12/15 07:49:26;;;;;;;118.70;42.92;;;9.80;99.90;;;;;;5011179;28;20033;-86
2021/12/15 07:52:00;;;;;;;115.93;40.63;;;9.80;99.90;;;;;;5011476;28;20029;-86
2021/12/15 07:54:27;;;;;;;115.22;41.55;;;9.80;99.90;;;;;;5010536;28;20113;-86
2021/12/15 07:56:53;;;;;;;114.93;40.95;;;9.80;99.90;;;;;;5000893;28;20030;-86
2021/12/15 07:59:18;;;;;;;116.88;42.22;;;9.80;99.90;;;;;;5009743;28;20471;-87
2021/12/15 08:01:44;;;;;;;110.35;41.13;;;9.80;99.90;;;;;;5010533;28;20041;-86
2021/12/15 08:04:10;;;;;;;119.82;41.15;;;9.80;99.90;;;;;;5010141;28;20541;-86
2021/12/15 08:06:35;;;;;;;124.15;42.42;;;9.80;99.90;;;;;;5011006;28;20026;-86
2021/12/15 08:09:02;;;;;;;107.15;40.67;;;9.80;99.90;;;;;;5012024;28;20026;-86
2021/12/15 08:11:28;;;;;;;113.30;41.97;;;9.90;99.90;;;;;;5011442;28;20033;-86
2021/12/15 08:13:53;;;;;;;117.45;41.55;;;9.90;99.90;;;;;;5010271;28;20084;-86
2021/12/15 08:16:19;;;;;;;119.35;42.42;;;9.90;99.90;;;;;;5004119;28;20053;-86
2021/12/15 08:18:46;;;;;;;114.35;43.22;;;9.90;99.90;;;;;;5007203;28;20074;-86
2021/12/15 08:21:12;;;;;;;119.43;42.00;;;9.90;99.90;;;;;;5006670;28;20073;-86
2021/12/15 08:23:38;;;;;;;113.10;42.03;;;9.90;99.90;;;;;;5011565;28;20513;-86
2021/12/15 08:26:04;;;;;;;118.13;42.90;;;9.90;99.90;;;;;;5007999;28;20030;-86
2021/12/15 08:28:30;;;;;;;119.03;43.90;;;9.90;99.90;;;;;;5011733;28;20019;-86
2021/12/15 08:30:59;;;;;;;122.82;44.22;;;9.90;99.90;;;;;;5007093;28;20395;-86
2021/12/15 08:33:26;;;;;;;113.15;41.55;;;9.90;99.90;;;;;;4994628;28;20026;-86
2021/12/15 08:36:05;;;;;;;124.90;41.20;;;9.90;99.90;;;;;;5008995;28;20034;-86
2021/12/15 08:38:34;;;;;;;121.47;42.08;;;9.90;99.90;;;;;;5004667;28;20131;-85
2021/12/15 08:41:02;;;;;;;117.32;42.40;;;9.90;99.90;;;;;;5013666;28;20050;-87
2021/12/15 08:43:28;;;;;;;117.72;42.60;;;9.90;99.90;;;;;;5012800;28;20030;-85
2021/12/15 08:46:06;;;;;;;112.22;41.70;;;10.00;99.90;;;;;;5007262;28;20169;-85
2021/12/15 08:48:34;;;;;;;113.13;41.05;;;10.00;99.90;;;;;;5010312;28;20030;-86
2021/12/15 08:51:00;;;;;;;113.57;39.65;;;10.00;99.90;;;;;;5016733;28;20044;-85
2021/12/15 08:53:26;;;;;;;115.10;40.97;;;10.00;99.90;;;;;;5020401;28;20482;-86
2021/12/15 08:55:52;;;;;;;117.57;42.17;;;10.00;99.90;;;;;;5016677;28;20533;-86
2021/12/15 08:58:20;;;;;;;114.63;43.53;;;10.00;99.90;;;;;;4998956;28;20054;-85
2021/12/15 09:00:47;;;;;;;126.82;43.17;;;10.00;99.90;;;;;;5000593;28;20469;-86
2021/12/15 09:03:14;;;;;;;121.53;43.15;;;10.00;99.90;;;;;;5032173;28;20029;-86
2021/12/15 09:05:41;;;;;;;116.72;42.63;;;10.10;99.90;;;;;;5017062;28;20114;-86
2021/12/15 09:08:08;;;;;;;113.53;41.58;;;10.10;99.90;;;;;;5014031;28;20181;-87
2021/12/15 09:10:37;;;;;;;105.55;41.38;;;10.10;99.90;;;;;;5015646;28;20120;-85
2021/12/15 09:13:04;;;;;;;107.30;40.28;;;10.10;99.90;;;;;;5011988;28;20042;-86
2021/12/15 09:15:30;;;;;;;110.80;41.28;;;10.10;99.90;;;;;;5015783;28;20549;-87
2021/12/15 09:17:57;;;;;;;115.28;43.63;;;10.20;99.90;;;;;;5014431;28;20044;-87
2021/12/15 09:20:26;;;;;;;113.07;41.72;;;10.20;99.90;;;;;;5016320;28;20049;-87
2021/12/15 09:22:52;;;;;;;112.35;42.78;;;10.10;99.90;;;;;;5032312;28;20029;-87
2021/12/15 09:25:18;;;;;;;112.45;42.92;;;10.20;99.90;;;;;;5018393;28;20022;-87
2021/12/15 09:27:45;;;;;;;122.47;44.85;;;10.10;99.90;;;;;;5015280;28;20502;-87
2021/12/15 09:30:15;;;;;;;112.07;42.58;;;10.10;99.90;;;;;;5016684;28;20129;-87
2021/12/15 09:32:41;;;;;;;107.28;42.30;;;10.20;99.90;;;;;;5012015;28;20046;-87
2021/12/15 09:35:08;;;;;;;111.60;43.90;;;10.20;99.90;;;;;;5016816;28;20068;-84
2021/12/15 09:37:33;;;;;;;104.78;40.83;;;10.20;99.90;;;;;;5010402;28;20022;-84
2021/12/15 09:39:59;;;;;;;113.18;43.35;;;10.20;99.90;;;;;;5006322;28;20030;-84
2021/12/15 09:42:32;;;;;;;107.90;41.70;;;10.20;99.90;;;;;;5016970;28;20029;-84
2021/12/15 09:45:18;;;;;;;107.78;41.20;;;10.30;99.90;;;;;;5015996;28;20042;-84
2021/12/15 10:04:47;;;;;;;102.53;41.92;;;10.40;99.90;;;;;;5014233;28;20157;-84
2021/12/15 10:19:55;;;;;;;96.95;42.70;;;10.60;99.90;;;;;;5014503;28;20058;-84
2021/12/15 10:22:46;;;;;;;99.85;43.55;;;10.60;99.90;;;;;;5013290;28;20434;-84
2021/12/15 10:25:42;;;;;;;91.55;41.58;;;10.70;99.90;;;;;;5010958;28;20029;-85
2021/12/15 10:28:15;;;;;;;93.63;40.42;;;10.70;99.90;;;;;;5003857;28;20030;-85
2021/12/15 10:30:44;;;;;;;87.35;39.67;;;10.70;99.90;;;;;;5019118;28;20047;-85
2021/12/15 10:33:15;;;;;;;90.72;40.60;;;10.70;99.90;;;;;;5008271;28;20092;-84
2021/12/15 10:35:49;;;;;;;95.30;42.38;;;10.80;99.90;;;;;;5012471;28;20037;-85
2021/12/15 10:38:31;;;;;;;96.10;42.58;;;10.80;99.90;;;;;;5014927;28;20037;-85
2021/12/15 10:41:16;;;;;;;86.93;39.90;;;10.80;99.90;;;;;;5014567;28;20034;-86
2021/12/15 10:43:56;;;;;;;88.82;40.53;;;10.80;99.90;;;;;;5015690;28;20022;-85
2021/12/15 10:46:39;;;;;;;87.47;40.88;;;10.80;99.90;;;;;;5011040;28;20060;-86
2021/12/15 10:49:07;;;;;;;88.53;41.28;;;10.80;99.90;;;;;;5007754;28;20101;-86
2021/12/15 10:51:47;;;;;;;92.63;43.65;;;10.90;99.90;;;;;;5011490;28;20502;-85
2021/12/15 10:54:27;;;;;;;81.55;40.05;;;10.90;99.90;;;;;;5020558;28;20030;-86
2021/12/15 10:56:57;;;;;;;79.65;39.80;;;11.00;99.90;;;;;;5007862;28;20030;-85
2021/12/15 10:59:25;;;;;;;84.68;42.30;;;11.00;99.90;;;;;;5012262;28;20026;-86
2021/12/15 11:01:56;;;;;;;85.90;41.35;;;11.00;99.90;;;;;;5013623;28;20034;-87
2021/12/15 11:04:33;;;;;;;84.05;43.22;;;11.00;99.90;;;;;;5015569;28;20057;-85
2021/12/15 11:07:20;;;;;;;79.32;40.05;;;11.00;99.90;;;;;;5014666;28;20026;-86
2021/12/15 11:09:53;;;;;;;81.13;41.90;;;11.00;99.90;;;;;;5016294;28;20072;-86
2021/12/15 11:12:27;;;;;;;;;;;11.10;99.90;;;;;;5014871;28;20026;-85
2021/12/15 11:14:58;;;;;;;79.20;39.38;;;11.10;99.90;;;;;;5015122;28;20370;-85
2021/12/15 11:17:48;;;;;;;74.60;38.53;;;11.00;99.90;;;;;;5014836;28;20026;-86
2021/12/15 11:20:31;;;;;;;80.45;41.15;;;11.00;99.90;;;;;;5011436;28;20124;-87
2021/12/15 11:23:12;;;;;;;76.15;39.40;;;11.10;99.90;;;;;;5013744;28;20037;-86
2021/12/15 11:25:51;;;;;;;70.88;38.47;;;11.10;99.90;;;;;;5014715;28;20033;-86
2021/12/15 11:28:35;;;;;;;76.97;40.05;;;11.10;99.90;;;;;;5036553;28;20030;-87
2021/12/15 11:31:10;;;;;;;70.45;37.55;;;11.10;99.90;;;;;;5009915;28;20022;-85
2021/12/15 11:33:45;;;;;;;72.07;41.42;;;11.10;99.90;;;;;;5010338;28;20553;-86
2021/12/15 11:36:33;;;;;;;71.88;39.17;;;11.20;99.90;;;;;;5015244;28;20133;-85
2021/12/15 11:39:07;;;;;;;68.85;37.80;;;11.20;99.90;;;;;;5013600;28;20509;-86
2021/12/15 11:41:34;;;;;;;67.65;36.53;;;11.30;99.90;;;;;;5012748;28;20072;-86
2021/12/15 11:44:16;;;;;;;73.00;39.70;;;11.30;99.90;;;;;;5013404;28;20026;-86
2021/12/15 11:46:54;;;;;;;71.60;39.20;;;11.30;99.90;;;;;;5013282;28;20070;-86
2021/12/15 11:49:29;;;;;;;67.97;38.55;;;11.40;99.90;;;;;;5012851;28;20068;-86
2021/12/15 11:52:01;;;;;;;67.15;39.08;;;11.40;99.90;;;;;;5012990;28;20022;-86
2021/12/15 11:54:30;;;;;;;64.13;37.13;;;11.40;99.90;;;;;;5013379;28;20026;-87
2021/12/15 11:57:06;;;;;;;61.05;36.70;;;11.40;99.90;;;;;;5006457;28;20126;-87
2021/12/15 11:59:36;;;;;;;67.63;39.50;;;11.50;99.90;;;;;;5011325;28;20068;-86
2021/12/15 12:02:28;;;;;;;62.20;37.38;;;11.50;99.90;;;;;;5013807;28;20034;-85
2021/12/15 12:05:14;;;;;;;60.73;34.67;;;11.50;99.90;;;;;;5012883;28;20030;-86
2021/12/15 12:07:44;;;;;;;60.65;34.55;;;11.50;99.90;;;;;;5016093;28;20284;-86
2021/12/15 12:10:22;;;;;;;56.88;34.65;;;11.60;99.90;;;;;;5014994;28;20068;-86
2021/12/15 12:13:27;;;;;;;56.00;33.10;;;11.60;99.90;;;;;;5015884;28;20122;-86
2021/12/15 12:15:46;;;;;;;53.08;33.08;;;11.60;99.90;;;;;;5017075;28;20037;-86
2021/12/15 12:18:21;;;;;;;53.78;31.70;;;11.70;99.90;;;;;;5019649;28;20030;-88
2021/12/15 12:20:50;;;;;;;51.92;32.20;;;11.70;99.90;;;;;;5019416;28;20038;-87
2021/12/15 12:23:19;;;;;;;49.13;31.75;;;11.70;99.90;;;;;;5017208;28;20045;-86
2021/12/15 12:25:49;;;;;;;47.70;29.80;;;11.70;99.90;;;;;;5014183;28;20034;-87
2021/12/15 12:28:19;;;;;;;46.67;30.33;;;11.70;99.90;;;;;;5018343;28;20141;-87
2021/12/15 12:30:49;;;;;;;51.17;32.38;;;11.70;99.90;;;;;;5018117;28;20034;-86
2021/12/15 12:33:17;;;;;;;47.45;31.52;;;11.70;99.90;;;;;;5018129;28;20025;-86
2021/12/15 12:35:46;;;;;;;48.72;31.95;;;11.70;99.90;;;;;;5017638;28;20129;-86
2021/12/15 12:38:20;;;;;;;51.30;32.25;;;11.70;99.90;;;;;;5013423;28;20094;-87
2021/12/15 12:40:51;;;;;;;53.63;33.45;;;11.60;99.90;;;;;;5012507;28;20042;-84
2021/12/15 12:43:29;;;;;;;53.72;32.65;;;11.60;99.90;;;;;;5007756;28;20479;-84
2021/12/15 12:46:11;;;;;;;51.33;31.92;;;11.60;99.90;;;;;;5013545;28;20020;-85
2021/12/15 12:59:24;;;;;;;55.08;34.30;;;11.30;99.90;;;;;;5011838;28;20501;-87
2021/12/15 13:01:50;;;;;;;57.42;33.72;;;11.30;99.90;;;;;;5018693;28;20441;-87
2021/12/15 13:04:16;;;;;;;55.08;34.58;;;11.20;99.90;;;;;;5018216;28;20022;-86
2021/12/15 13:06:43;;;;;;;55.10;34.53;;;11.20;99.90;;;;;;5019661;28;20080;-87
2021/12/15 13:09:16;;;;;;;62.28;36.80;;;11.20;99.90;;;;;;5020724;28;20499;-86
2021/12/15 13:11:46;;;;;;;54.05;34.30;;;11.10;99.90;;;;;;5016617;28;20041;-86
2021/12/15 13:14:37;;;;;;;58.92;35.13;;;11.00;99.90;;;;;;5016110;28;20022;-86
2021/12/15 13:17:13;;;;;;;57.25;34.55;;;11.00;99.90;;;;;;5011082;28;20030;-86
2021/12/15 13:19:44;;;;;;;50.47;33.25;;;11.00;99.90;;;;;;5015576;28;20045;-86
2021/12/15 13:22:47;;;;;;;54.20;33.38;;;11.00;99.90;;;;;;5015693;28;20095;-86
2021/12/15 13:31:06;;;;;;;52.83;33.03;;;11.10;99.90;;;;;;5016917;28;20032;-86
2021/12/15 13:33:32;;;;;;;54.00;34.40;;;11.10;99.90;;;;;;5015210;28;20482;-87
2021/12/15 13:36:20;;;;;;;47.75;31.40;;;11.10;99.90;;;;;;5015660;28;20022;-86
2021/12/15 13:38:56;;;;;;;55.25;34.20;;;11.10;99.90;;;;;;5015842;28;20018;-85
2021/12/15 13:41:44;;;;;;;49.95;32.15;;;11.10;99.90;;;;;;5014131;28;20063;-86
2021/12/15 13:44:35;;;;;;;47.17;30.15;;;11.10;99.90;;;;;;5008678;28;20060;-87
2021/12/15 13:47:18;;;;;;;47.08;28.25;;;11.10;99.90;;;;;;5017248;28;20414;-86
2021/12/15 13:50:10;;;;;;;44.42;28.10;;;11.10;99.90;;;;;;5014963;28;20060;-86
2021/12/15 13:52:39;;;;;;;41.05;28.48;;;11.10;99.90;;;;;;5009317;28;20050;-86
2021/12/15 13:55:04;;;;;;;43.38;27.88;;;11.10;99.90;;;;;;5014610;28;20022;-86
2021/12/15 13:58:04;;;;;;;40.08;26.83;;;11.10;99.90;;;;;;5009037;28;20033;-86
2021/12/15 14:00:50;;;;;;;42.10;27.88;;;11.10;99.90;;;;;;5008203;28;20174;-86
2021/12/15 14:03:41;;;;;;;37.22;25.50;;;11.10;99.90;;;;;;5027917;28;20069;-86
2021/12/15 14:06:11;;;;;;;39.45;26.48;;;11.10;99.90;;;;;;5006256;28;20025;-86
2021/12/15 14:08:41;;;;;;;35.45;21.73;;;11.10;99.90;;;;;;5016350;28;20065;-86
2021/12/15 14:11:29;;;;;;;38.88;24.05;;;11.10;99.90;;;;;;5015856;28;20105;-86
2021/12/15 14:14:19;;;;;;;40.40;22.27;;;11.10;99.90;;;;;;5013734;28;20030;-87